Item Display Status Humidity-temperature Sensor

Elevation Above Sea Level: 3 m

 

Deployed Sensor

  • Serial Number: 20351220
  • NDBC Property Number: 43304
  • Start Date: 3/30/2020 (08:58:14 Z)
  • End Date: Currently Active
Relative Humidity [%]     6 entries per hour
Showing data from 9/19/2020 (19:00:00 Z) to 9/18/2020 (00:00:01 Z)
Previous Next [ Day | 3-Days | 7-Days ]
First Last
Prev [ Day | 3-Days | 7-Days ] Next
First Last

Start Time:     :
End Time:     :     
Time (in GMT) :00 :50 :40 :30 :20 :10
Previous Next [ Day | 3-Days | 7-Days ]
First Last
Prev [ Day | 3-Days | 7-Days ] Next
First Last


123 => good data
MM => data is determined as missing
-- => data not received/configured
Back to Top Back to Top
9/19/2020 19:00 to 18:10 81.03 78.19 78.25 77.82 78.31 78.35
9/19/2020 18:00 to 17:10 78.82 77.88 78.43 76.67 78.56 79.15
9/19/2020 17:00 to 16:10 78.86 78.64 77.31 78.92 79.78 77.55
9/19/2020 16:00 to 15:10 76.41 78.31 76.57 76.10 76.04 79.91
9/19/2020 15:00 to 14:10 81.85 83.00 82.63 78.92 77.18 70.19
9/19/2020 14:00 to 13:10 74.55 75.73 76.51 77.98 79.03 75.90
9/19/2020 13:00 to 12:10 76.45 78.23 77.66 77.61 75.61 75.79
9/19/2020 12:00 to 11:10 76.63 76.92 77.21 77.76 78.17 76.88
9/19/2020 11:00 to 10:10 77.59 76.65 76.94 77.04 77.23 77.51
9/19/2020 10:00 to 9:10 76.94 76.12 73.28 74.03 75.14 75.10
9/19/2020 09:00 to 8:10 75.94 77.39 76.08 75.77 75.73 77.31
9/19/2020 08:00 to 7:10 78.92 77.92 74.73 73.93 75.81 76.69
9/19/2020 07:00 to 6:10 75.57 74.36 75.26 75.90 74.42 78.25
9/19/2020 06:00 to 5:10 78.02 79.58 78.76 78.88 79.99 81.34
9/19/2020 05:00 to 4:10 79.62 81.79 79.05 77.61 78.76 81.34
9/19/2020 04:00 to 3:10 82.34 80.70 80.40 79.58 79.44 81.13
9/19/2020 03:00 to 2:10 83.32 80.46 80.46 82.79 82.95 81.26
9/19/2020 02:00 to 1:10 79.52 82.01 83.12 86.53 89.13 87.80
9/19/2020 01:00 to 0:10 86.94 86.70 88.09 88.40 89.60 89.77
9/19/2020 00:00 to 23:10 84.53 87.41 87.13 86.96 87.56 83.63
9/18/2020 23:00 to 22:10 83.00 81.87 83.71 85.41 84.00 83.36
9/18/2020 22:00 to 21:10 83.12 82.71 81.71 83.81 83.59 83.75
9/18/2020 21:00 to 20:10 83.47 81.42 81.26 81.85 84.37 82.01
9/18/2020 20:00 to 19:10 82.03 81.34 81.09 80.83 80.21 80.11
9/18/2020 19:00 to 18:10 79.09 78.70 76.67 76.04 77.16 77.76
9/18/2020 18:00 to 17:10 78.17 79.13 77.43 79.58 80.85 80.09
9/18/2020 17:00 to 16:10 78.78 78.68 80.15 79.72 79.56 78.88
9/18/2020 16:00 to 15:10 79.17 79.95 77.78 77.18 78.15 78.11
9/18/2020 15:00 to 14:10 78.39 78.27 77.47 76.20 75.85 75.61
9/18/2020 14:00 to 13:10 75.88 75.94 76.65 77.12 77.27 77.43
9/18/2020 13:00 to 12:10 77.37 75.85 76.80 77.06 76.33 75.83
9/18/2020 12:00 to 11:10 76.37 77.18 74.79 75.59 76.39 77.33
9/18/2020 11:00 to 10:10 78.09 76.63 76.53 75.57 74.44 75.43
9/18/2020 10:00 to 9:10 76.43 77.47 77.72 77.59 78.00 77.63
9/18/2020 09:00 to 8:10 76.35 76.28 75.40 75.55 75.28 74.75
9/18/2020 08:00 to 7:10 75.20 75.98 76.49 76.31 77.10 76.26
9/18/2020 07:00 to 6:10 75.40 74.26 75.06 76.08 74.61 74.42
9/18/2020 06:00 to 5:10 75.96 75.96 75.79 75.85 74.38 74.71
9/18/2020 05:00 to 4:10 75.32 72.72 71.15 73.77 75.61 77.76
9/18/2020 04:00 to 3:10 77.47 76.04 73.77 72.77 72.52 72.77
9/18/2020 03:00 to 2:10 73.56 75.20 74.85 75.51 76.18 76.61
9/18/2020 02:00 to 1:10 77.08 74.85 75.57 77.74 79.56 79.41
9/18/2020 01:00 to 0:10 79.80 78.84 78.56 79.37 78.39 78.27

 

 

 

Air Temperature [°C]     6 entries per hour
Showing data from 9/19/2020 (19:00:00 Z) to 9/18/2020 (00:00:01 Z)
Previous Next [ Day | 3-Days | 7-Days ]
First Last
Prev [ Day | 3-Days | 7-Days ] Next
First Last

Start Time:     :
End Time:     :     
Time (in GMT) :00 :50 :40 :30 :20 :10
Previous Next [ Day | 3-Days | 7-Days ]
First Last
Prev [ Day | 3-Days | 7-Days ] Next
First Last


123 => good data
MM => data is determined as missing
-- => data not received/configured
Back to Top Back to Top
9/19/2020 19:00 to 18:10 23.16 23.25 23.31 23.22 23.39 23.39
9/19/2020 18:00 to 17:10 23.44 23.24 23.35 23.43 23.25 23.22
9/19/2020 17:00 to 16:10 23.44 23.24 23.11 22.95 23.19 23.32
9/19/2020 16:00 to 15:10 23.24 23.35 23.34 23.28 23.20 23.01
9/19/2020 15:00 to 14:10 22.51 22.38 22.51 22.64 23.07 23.45
9/19/2020 14:00 to 13:10 23.01 23.07 23.02 22.98 23.07 23.08
9/19/2020 13:00 to 12:10 23.03 23.06 23.12 23.21 23.35 23.48
9/19/2020 12:00 to 11:10 23.35 23.30 23.30 23.16 23.30 23.26
9/19/2020 11:00 to 10:10 23.22 23.26 23.26 23.13 23.22 23.07
9/19/2020 10:00 to 9:10 23.18 23.41 23.43 23.27 23.20 23.26
9/19/2020 09:00 to 8:10 23.13 23.30 23.27 23.34 23.23 23.18
9/19/2020 08:00 to 7:10 22.99 23.14 23.55 23.42 23.48 23.11
9/19/2020 07:00 to 6:10 23.44 23.56 23.37 23.34 23.21 23.37
9/19/2020 06:00 to 5:10 23.05 23.14 23.36 23.24 23.09 23.09
9/19/2020 05:00 to 4:10 23.12 23.33 23.37 23.42 23.29 23.10
9/19/2020 04:00 to 3:10 23.09 23.01 23.25 23.13 22.83 23.00
9/19/2020 03:00 to 2:10 22.90 23.11 22.90 22.94 22.97 23.08
9/19/2020 02:00 to 1:10 23.12 23.13 23.00 22.54 22.31 22.68
9/19/2020 01:00 to 0:10 22.59 22.42 22.34 22.56 22.44 22.68
9/19/2020 00:00 to 23:10 22.84 22.47 22.68 22.30 22.36 22.70
9/18/2020 23:00 to 22:10 22.99 23.12 22.78 22.51 23.05 23.09
9/18/2020 22:00 to 21:10 22.92 22.95 22.89 22.56 23.01 22.93
9/18/2020 21:00 to 20:10 22.94 23.38 23.22 23.01 23.08 23.06
9/18/2020 20:00 to 19:10 23.04 23.11 23.19 23.25 23.17 23.24
9/18/2020 19:00 to 18:10 23.18 23.27 23.40 23.42 23.49 23.29
9/18/2020 18:00 to 17:10 23.14 23.35 23.11 23.10 23.09 23.01
9/18/2020 17:00 to 16:10 23.42 23.06 23.10 23.07 23.21 23.28
9/18/2020 16:00 to 15:10 23.26 23.37 23.21 23.25 23.08 23.23
9/18/2020 15:00 to 14:10 23.24 23.08 23.12 22.99 22.89 22.78
9/18/2020 14:00 to 13:10 22.80 22.58 22.67 22.71 22.76 22.60
9/18/2020 13:00 to 12:10 22.77 22.67 22.87 22.83 22.76 22.77
9/18/2020 12:00 to 11:10 22.73 23.03 22.78 22.71 22.70 22.86
9/18/2020 11:00 to 10:10 22.92 22.88 22.95 22.87 22.71 22.70
9/18/2020 10:00 to 9:10 22.78 22.94 22.97 22.90 23.17 23.04
9/18/2020 09:00 to 8:10 22.91 23.09 22.95 23.07 23.01 23.12
9/18/2020 08:00 to 7:10 23.23 23.02 23.14 23.27 23.21 23.27
9/18/2020 07:00 to 6:10 23.44 23.16 23.23 23.23 23.43 23.20
9/18/2020 06:00 to 5:10 23.31 23.15 23.24 23.45 23.28 23.22
9/18/2020 05:00 to 4:10 23.33 23.49 23.28 23.40 23.30 23.16
9/18/2020 04:00 to 3:10 23.41 23.41 23.35 23.40 23.37 23.36
9/18/2020 03:00 to 2:10 23.17 23.56 23.26 23.39 23.35 23.15
9/18/2020 02:00 to 1:10 23.41 23.36 23.11 23.21 23.34 23.12
9/18/2020 01:00 to 0:10 23.29 22.99 23.28 23.34 23.23 23.11